sensor_id;sensor_type;location;lat;lon;timestamp;pressure;altitude;pressure_sealevel;temperature;humidity
67697;BME280;54486;51.442;6.778;2023-04-03T00:00:56;102783.81;;;2.45;96.22
67697;BME280;54486;51.442;6.778;2023-04-03T00:03:25;102787.47;;;2.49;96.27
67697;BME280;54486;51.442;6.778;2023-04-03T00:05:52;102783.00;;;2.46;97.27
67697;BME280;54486;51.442;6.778;2023-04-03T00:08:19;102782.66;;;2.40;96.73
67697;BME280;54486;51.442;6.778;2023-04-03T00:10:47;102787.97;;;2.43;96.44
67697;BME280;54486;51.442;6.778;2023-04-03T00:13:16;102780.00;;;2.39;96.87
67697;BME280;54486;51.442;6.778;2023-04-03T00:15:43;102779.13;;;2.38;97.44
67697;BME280;54486;51.442;6.778;2023-04-03T00:18:13;102782.31;;;2.34;96.40
67697;BME280;54486;51.442;6.778;2023-04-03T00:20:39;102780.50;;;2.33;96.79
67697;BME280;54486;51.442;6.778;2023-04-03T00:23:07;102780.09;;;2.26;96.75
67697;BME280;54486;51.442;6.778;2023-04-03T00:25:34;102775.00;;;2.27;97.18
67697;BME280;54486;51.442;6.778;2023-04-03T00:28:02;102788.59;;;2.25;96.32
67697;BME280;54486;51.442;6.778;2023-04-03T00:30:29;102788.34;;;2.20;96.59
67697;BME280;54486;51.442;6.778;2023-04-03T00:32:57;102783.00;;;2.17;96.24
67697;BME280;54486;51.442;6.778;2023-04-03T00:35:24;102778.38;;;2.11;96.79
67697;BME280;54486;51.442;6.778;2023-04-03T00:37:53;102780.72;;;2.07;96.73
67697;BME280;54486;51.442;6.778;2023-04-03T00:40:23;102785.84;;;2.07;96.73
67697;BME280;54486;51.442;6.778;2023-04-03T00:42:54;102784.06;;;2.06;96.90
67697;BME280;54486;51.442;6.778;2023-04-03T00:45:36;102775.38;;;2.04;97.37
67697;BME280;54486;51.442;6.778;2023-04-03T00:48:05;102780.34;;;2.01;97.30
67697;BME280;54486;51.442;6.778;2023-04-03T00:50:37;102785.50;;;2.01;96.96
67697;BME280;54486;51.442;6.778;2023-04-03T00:53:06;102782.94;;;2.01;98.01
67697;BME280;54486;51.442;6.778;2023-04-03T00:55:36;102787.06;;;1.99;97.68
67697;BME280;54486;51.442;6.778;2023-04-03T00:58:07;102791.25;;;1.97;97.69
67697;BME280;54486;51.442;6.778;2023-04-03T01:00:37;102787.59;;;1.93;96.95
67697;BME280;54486;51.442;6.778;2023-04-03T01:03:07;102793.47;;;1.91;97.25
67697;BME280;54486;51.442;6.778;2023-04-03T01:05:35;102789.72;;;1.86;97.52
67697;BME280;54486;51.442;6.778;2023-04-03T01:08:01;102789.53;;;1.83;97.61
67697;BME280;54486;51.442;6.778;2023-04-03T01:10:30;102792.91;;;1.82;98.09
67697;BME280;54486;51.442;6.778;2023-04-03T01:12:59;102797.06;;;1.80;97.73
67697;BME280;54486;51.442;6.778;2023-04-03T01:15:27;102798.84;;;1.81;98.30
67697;BME280;54486;51.442;6.778;2023-04-03T01:18:04;102804.78;;;1.80;98.05
67697;BME280;54486;51.442;6.778;2023-04-03T01:21:06;102796.16;;;1.79;97.97
67697;BME280;54486;51.442;6.778;2023-04-03T01:23:44;102803.72;;;1.76;98.76
67697;BME280;54486;51.442;6.778;2023-04-03T01:26:15;102802.63;;;1.73;98.53
67697;BME280;54486;51.442;6.778;2023-04-03T01:28:42;102800.88;;;1.72;98.19
67697;BME280;54486;51.442;6.778;2023-04-03T01:31:26;102805.72;;;1.67;98.54
67697;BME280;54486;51.442;6.778;2023-04-03T01:33:57;102807.41;;;1.67;98.80
67697;BME280;54486;51.442;6.778;2023-04-03T01:36:28;102816.13;;;1.69;98.25
67697;BME280;54486;51.442;6.778;2023-04-03T01:38:56;102817.69;;;1.67;98.38
67697;BME280;54486;51.442;6.778;2023-04-03T01:41:24;102811.66;;;1.66;99.04
67697;BME280;54486;51.442;6.778;2023-04-03T01:43:54;102810.81;;;1.66;98.65
67697;BME280;54486;51.442;6.778;2023-04-03T01:46:22;102815.25;;;1.68;98.99
67697;BME280;54486;51.442;6.778;2023-04-03T01:48:50;102815.94;;;1.66;98.77
67697;BME280;54486;51.442;6.778;2023-04-03T01:51:19;102814.94;;;1.64;99.48
67697;BME280;54486;51.442;6.778;2023-04-03T01:53:49;102816.44;;;1.60;98.80
67697;BME280;54486;51.442;6.778;2023-04-03T01:56:19;102813.09;;;1.61;99.13
67697;BME280;54486;51.442;6.778;2023-04-03T01:58:47;102820.72;;;1.59;98.62
67697;BME280;54486;51.442;6.778;2023-04-03T02:01:14;102813.00;;;1.59;98.70
67697;BME280;54486;51.442;6.778;2023-04-03T02:03:44;102807.94;;;1.61;98.84
67697;BME280;54486;51.442;6.778;2023-04-03T02:06:11;102815.56;;;1.59;99.11
67697;BME280;54486;51.442;6.778;2023-04-03T02:08:39;102816.44;;;1.60;99.08
67697;BME280;54486;51.442;6.778;2023-04-03T02:11:07;102818.03;;;1.58;99.34
67697;BME280;54486;51.442;6.778;2023-04-03T02:13:36;102815.56;;;1.59;99.45
67697;BME280;54486;51.442;6.778;2023-04-03T02:16:07;102824.09;;;1.58;98.74
67697;BME280;54486;51.442;6.778;2023-04-03T02:18:38;102831.78;;;1.58;98.79
67697;BME280;54486;51.442;6.778;2023-04-03T02:21:06;102830.78;;;1.56;99.47
67697;BME280;54486;51.442;6.778;2023-04-03T02:23:34;102828.16;;;1.55;99.69
67697;BME280;54486;51.442;6.778;2023-04-03T02:26:12;102824.50;;;1.51;99.13
67697;BME280;54486;51.442;6.778;2023-04-03T02:28:39;102826.16;;;1.51;99.01
67697;BME280;54486;51.442;6.778;2023-04-03T02:31:10;102834.00;;;1.52;98.89
67697;BME280;54486;51.442;6.778;2023-04-03T02:33:37;102832.22;;;1.51;98.88
67697;BME280;54486;51.442;6.778;2023-04-03T02:36:06;102830.41;;;1.50;98.98
67697;BME280;54486;51.442;6.778;2023-04-03T02:38:34;102828.66;;;1.49;99.19
67697;BME280;54486;51.442;6.778;2023-04-03T02:41:04;102833.00;;;1.50;98.78
67697;BME280;54486;51.442;6.778;2023-04-03T02:43:32;102825.28;;;1.50;99.31
67697;BME280;54486;51.442;6.778;2023-04-03T02:45:59;102828.84;;;1.52;99.36
67697;BME280;54486;51.442;6.778;2023-04-03T02:48:26;102825.47;;;1.53;98.65
67697;BME280;54486;51.442;6.778;2023-04-03T02:50:55;102827.25;;;1.54;99.68
67697;BME280;54486;51.442;6.778;2023-04-03T02:53:22;102833.28;;;1.55;98.88
67697;BME280;54486;51.442;6.778;2023-04-03T02:55:50;102835.94;;;1.56;99.35
67697;BME280;54486;51.442;6.778;2023-04-03T02:58:17;102834.06;;;1.54;99.40
67697;BME280;54486;51.442;6.778;2023-04-03T03:00:44;102832.41;;;1.54;99.00
67697;BME280;54486;51.442;6.778;2023-04-03T03:03:11;102834.19;;;1.55;99.18
67697;BME280;54486;51.442;6.778;2023-04-03T03:05:42;102846.66;;;1.49;99.23
67697;BME280;54486;51.442;6.778;2023-04-03T03:08:09;102845.00;;;1.50;98.44
67697;BME280;54486;51.442;6.778;2023-04-03T03:10:37;102843.09;;;1.47;99.01
67697;BME280;54486;51.442;6.778;2023-04-03T03:13:04;102852.72;;;1.50;98.23
67697;BME280;54486;51.442;6.778;2023-04-03T03:15:32;102840.72;;;1.50;98.13
67697;BME280;54486;51.442;6.778;2023-04-03T03:17:59;102845.00;;;1.50;97.92
67697;BME280;54486;51.442;6.778;2023-04-03T03:20:27;102844.09;;;1.49;98.24
67697;BME280;54486;51.442;6.778;2023-04-03T03:22:54;102843.19;;;1.49;98.17
67697;BME280;54486;51.442;6.778;2023-04-03T03:25:21;102845.84;;;1.50;97.49
67697;BME280;54486;51.442;6.778;2023-04-03T03:27:49;102847.63;;;1.51;97.38
67697;BME280;54486;51.442;6.778;2023-04-03T03:30:17;102846.66;;;1.49;97.43
67697;BME280;54486;51.442;6.778;2023-04-03T03:32:44;102842.31;;;1.48;97.68
67697;BME280;54486;51.442;6.778;2023-04-03T03:35:12;102847.44;;;1.48;98.26
67697;BME280;54486;51.442;6.778;2023-04-03T03:37:39;102845.66;;;1.47;98.36
67697;BME280;54486;51.442;6.778;2023-04-03T03:40:07;102843.00;;;1.46;97.62
67697;BME280;54486;51.442;6.778;2023-04-03T03:42:34;102842.91;;;1.44;97.62
67697;BME280;54486;51.442;6.778;2023-04-03T03:45:01;102836.78;;;1.42;97.07
67697;BME280;54486;51.442;6.778;2023-04-03T03:47:28;102841.75;;;1.39;97.13
67697;BME280;54486;51.442;6.778;2023-04-03T03:49:55;102841.16;;;1.43;97.22
67697;BME280;54486;51.442;6.778;2023-04-03T03:52:23;102844.50;;;1.42;97.07
67697;BME280;54486;51.442;6.778;2023-04-03T03:54:50;102840.16;;;1.41;97.70
67697;BME280;54486;51.442;6.778;2023-04-03T03:57:17;102841.75;;;1.39;97.84
67697;BME280;54486;51.442;6.778;2023-04-03T03:59:44;102843.31;;;1.37;97.35
67697;BME280;54486;51.442;6.778;2023-04-03T04:02:14;102847.59;;;1.37;97.45
67697;BME280;54486;51.442;6.778;2023-04-03T04:04:42;102843.13;;;1.34;97.10
67697;BME280;54486;51.442;6.778;2023-04-03T04:07:09;102839.75;;;1.35;97.22
67697;BME280;54486;51.442;6.778;2023-04-03T04:09:36;102846.69;;;1.36;97.46
67697;BME280;54486;51.442;6.778;2023-04-03T04:12:03;102850.94;;;1.36;96.83
67697;BME280;54486;51.442;6.778;2023-04-03T04:14:30;102854.59;;;1.39;97.02
67697;BME280;54486;51.442;6.778;2023-04-03T04:16:57;102855.56;;;1.41;96.72
67697;BME280;54486;51.442;6.778;2023-04-03T04:19:24;102857.38;;;1.42;96.82
67697;BME280;54486;51.442;6.778;2023-04-03T04:21:51;102867.47;;;1.39;96.30
67697;BME280;54486;51.442;6.778;2023-04-03T04:24:18;102868.25;;;1.38;96.47
67697;BME280;54486;51.442;6.778;2023-04-03T04:26:46;102867.28;;;1.36;96.72
67697;BME280;54486;51.442;6.778;2023-04-03T04:29:13;102877.38;;;1.33;96.66
67697;BME280;54486;51.442;6.778;2023-04-03T04:31:40;102876.28;;;1.30;96.53
67697;BME280;54486;51.442;6.778;2023-04-03T04:34:08;102876.97;;;1.27;96.29
67697;BME280;54486;51.442;6.778;2023-04-03T04:36:39;102876.97;;;1.27;96.35
67697;BME280;54486;51.442;6.778;2023-04-03T04:39:07;102874.41;;;1.27;95.92
67697;BME280;54486;51.442;6.778;2023-04-03T04:41:34;102876.16;;;1.28;96.03
67697;BME280;54486;51.442;6.778;2023-04-03T04:44:01;102881.41;;;1.30;95.27
67697;BME280;54486;51.442;6.778;2023-04-03T04:46:28;102878.94;;;1.31;95.52
67697;BME280;54486;51.442;6.778;2023-04-03T04:48:55;102889.22;;;1.31;95.41
67697;BME280;54486;51.442;6.778;2023-04-03T04:51:22;102894.34;;;1.31;95.50
67697;BME280;54486;51.442;6.778;2023-04-03T04:53:49;102894.34;;;1.31;95.23
67697;BME280;54486;51.442;6.778;2023-04-03T04:56:17;102902.06;;;1.31;95.12
67697;BME280;54486;51.442;6.778;2023-04-03T04:58:47;102901.28;;;1.32;95.41
67697;BME280;54486;51.442;6.778;2023-04-03T05:01:13;102904.44;;;1.28;94.83
67697;BME280;54486;51.442;6.778;2023-04-03T05:03:43;102904.44;;;1.28;95.62
67697;BME280;54486;51.442;6.778;2023-04-03T05:06:10;102907.84;;;1.27;95.28
67697;BME280;54486;51.442;6.778;2023-04-03T05:08:37;102901.09;;;1.29;95.63
67697;BME280;54486;51.442;6.778;2023-04-03T05:11:04;102904.44;;;1.28;95.76
67697;BME280;54486;51.442;6.778;2023-04-03T05:13:31;102901.69;;;1.25;95.73
67697;BME280;54486;51.442;6.778;2023-04-03T05:15:58;102900.91;;;1.26;95.88
67697;BME280;54486;51.442;6.778;2023-04-03T05:18:29;102907.84;;;1.27;95.57
67697;BME280;54486;51.442;6.778;2023-04-03T05:20:56;102912.28;;;1.30;95.47
67697;BME280;54486;51.442;6.778;2023-04-03T05:23:26;102907.34;;;1.33;95.78
67697;BME280;54486;51.442;6.778;2023-04-03T05:25:53;102904.75;;;1.33;95.68
67697;BME280;54486;51.442;6.778;2023-04-03T05:28:20;102906.63;;;1.35;95.19
67697;BME280;54486;51.442;6.778;2023-04-03T05:30:54;102906.63;;;1.35;94.57
67697;BME280;54486;51.442;6.778;2023-04-03T05:33:22;102911.78;;;1.35;94.24
67697;BME280;54486;51.442;6.778;2023-04-03T05:35:50;102913.56;;;1.36;94.98
67697;BME280;54486;51.442;6.778;2023-04-03T05:38:17;102922.25;;;1.38;94.50
67697;BME280;54486;51.442;6.778;2023-04-03T05:40:44;102922.44;;;1.41;93.94
67697;BME280;54486;51.442;6.778;2023-04-03T05:43:12;102919.88;;;1.41;94.06
67697;BME280;54486;51.442;6.778;2023-04-03T05:45:39;102923.34;;;1.42;94.01
67697;BME280;54486;51.442;6.778;2023-04-03T05:48:06;102926.03;;;1.43;94.52
67697;BME280;54486;51.442;6.778;2023-04-03T05:50:33;102934.72;;;1.45;93.90
67697;BME280;54486;51.442;6.778;2023-04-03T05:53:01;102931.56;;;1.49;94.08
67697;BME280;54486;51.442;6.778;2023-04-03T05:55:32;102936.72;;;1.49;93.25
67697;BME280;54486;51.442;6.778;2023-04-03T05:57:59;102947.19;;;1.52;93.22
67697;BME280;54486;51.442;6.778;2023-04-03T06:00:26;102939.66;;;1.55;93.54
67697;BME280;54486;51.442;6.778;2023-04-03T06:02:54;102949.38;;;1.59;93.17
67697;BME280;54486;51.442;6.778;2023-04-03T06:05:21;102956.47;;;1.64;92.24
67697;BME280;54486;51.442;6.778;2023-04-03T06:07:49;102956.47;;;1.64;92.56
67697;BME280;54486;51.442;6.778;2023-04-03T06:10:16;102959.34;;;1.68;92.77
67697;BME280;54486;51.442;6.778;2023-04-03T06:12:44;102963.78;;;1.71;92.53
67697;BME280;54486;51.442;6.778;2023-04-03T06:15:11;102963.97;;;1.74;91.53
67697;BME280;54486;51.442;6.778;2023-04-03T06:17:38;102957.41;;;1.79;91.57
67697;BME280;54486;51.442;6.778;2023-04-03T06:20:05;102950.00;;;1.83;91.88
67697;BME280;54486;51.442;6.778;2023-04-03T06:22:32;102956.94;;;1.84;91.18
67697;BME280;54486;51.442;6.778;2023-04-03T06:25:00;102957.22;;;1.89;90.97
67697;BME280;54486;51.442;6.778;2023-04-03T06:27:27;102951.28;;;1.90;90.99
67697;BME280;54486;51.442;6.778;2023-04-03T06:29:54;102949.69;;;1.92;90.45
67697;BME280;54486;51.442;6.778;2023-04-03T06:32:22;102950.75;;;1.95;89.92
67697;BME280;54486;51.442;6.778;2023-04-03T06:34:49;102950.28;;;2.01;90.09
67697;BME280;54486;51.442;6.778;2023-04-03T06:37:22;102948.69;;;2.03;89.47
67697;BME280;54486;51.442;6.778;2023-04-03T06:39:49;102941.13;;;2.06;88.70
67697;BME280;54486;51.442;6.778;2023-04-03T06:42:17;102943.91;;;2.09;88.43
67697;BME280;54486;51.442;6.778;2023-04-03T06:44:44;102939.66;;;2.09;87.51
67697;BME280;54486;51.442;6.778;2023-04-03T06:47:13;102951.91;;;2.13;87.66
67697;BME280;54486;51.442;6.778;2023-04-03T06:49:41;102951.22;;;2.16;87.58
67697;BME280;54486;51.442;6.778;2023-04-03T06:52:09;102960.09;;;2.21;87.66
67697;BME280;54486;51.442;6.778;2023-04-03T06:54:39;102958.59;;;2.25;87.38
67697;BME280;54486;51.442;6.778;2023-04-03T06:57:07;102956.69;;;2.35;86.66
67697;BME280;54486;51.442;6.778;2023-04-03T06:59:35;102965.31;;;2.36;86.53
67697;BME280;54486;51.442;6.778;2023-04-03T07:02:03;102971.53;;;2.39;86.32
67697;BME280;54486;51.442;6.778;2023-04-03T07:04:30;102966.75;;;2.45;86.46
67697;BME280;54486;51.442;6.778;2023-04-03T07:06:58;102961.63;;;2.60;86.75
67697;BME280;54486;51.442;6.778;2023-04-03T07:09:24;102971.94;;;2.60;85.96
67697;BME280;54486;51.442;6.778;2023-04-03T07:11:52;102959.50;;;2.67;84.80
67697;BME280;54486;51.442;6.778;2023-04-03T07:14:18;102965.75;;;2.71;83.92
67697;BME280;54486;51.442;6.778;2023-04-03T07:16:45;102964.84;;;2.71;83.64
67697;BME280;54486;51.442;6.778;2023-04-03T07:19:12;102974.44;;;2.73;83.51
67697;BME280;54486;51.442;6.778;2023-04-03T07:21:39;102975.69;;;2.80;82.29
67697;BME280;54486;51.442;6.778;2023-04-03T07:24:08;102984.75;;;2.88;81.67
67697;BME280;54486;51.442;6.778;2023-04-03T07:26:40;102981.22;;;2.86;81.30
67697;BME280;54486;51.442;6.778;2023-04-03T07:29:07;102982.09;;;3.01;80.91
67697;BME280;54486;51.442;6.778;2023-04-03T07:31:35;102987.38;;;3.02;81.29
67697;BME280;54486;51.442;6.778;2023-04-03T07:34:02;102984.69;;;3.01;81.00
67697;BME280;54486;51.442;6.778;2023-04-03T07:36:31;102985.69;;;3.03;80.79
67697;BME280;54486;51.442;6.778;2023-04-03T07:39:00;102991.88;;;3.06;80.48
67697;BME280;54486;51.442;6.778;2023-04-03T07:41:29;102982.63;;;3.10;80.34
67697;BME280;54486;51.442;6.778;2023-04-03T07:43:56;102988.13;;;3.16;79.94
67697;BME280;54486;51.442;6.778;2023-04-03T07:46:24;102986.56;;;3.18;79.63
67697;BME280;54486;51.442;6.778;2023-04-03T07:48:51;102984.88;;;3.18;79.78
67697;BME280;54486;51.442;6.778;2023-04-03T07:51:18;102987.09;;;3.27;78.70
67697;BME280;54486;51.442;6.778;2023-04-03T07:53:46;102990.97;;;3.35;78.16
67697;BME280;54486;51.442;6.778;2023-04-03T07:56:13;102996.53;;;3.41;78.97
67697;BME280;54486;51.442;6.778;2023-04-03T07:58:40;102991.53;;;3.44;77.57
67697;BME280;54486;51.442;6.778;2023-04-03T08:01:08;102994.19;;;3.46;77.45
67697;BME280;54486;51.442;6.778;2023-04-03T08:03:35;102986.50;;;3.62;75.41
67697;BME280;54486;51.442;6.778;2023-04-03T08:06:05;102997.56;;;3.59;74.10
67697;BME280;54486;51.442;6.778;2023-04-03T08:08:41;102996.09;;;3.64;73.50
67697;BME280;54486;51.442;6.778;2023-04-03T08:11:09;102985.44;;;3.73;72.83
67697;BME280;54486;51.442;6.778;2023-04-03T08:13:36;102979.69;;;3.79;72.44
67697;BME280;54486;51.442;6.778;2023-04-03T08:16:12;102992.16;;;3.86;73.94
67697;BME280;54486;51.442;6.778;2023-04-03T08:18:39;102985.53;;;3.91;73.04
67697;BME280;54486;51.442;6.778;2023-04-03T08:21:09;102978.13;;;3.97;72.75
67697;BME280;54486;51.442;6.778;2023-04-03T08:23:47;102986.38;;;4.06;71.84
67697;BME280;54486;51.442;6.778;2023-04-03T08:26:16;102980.66;;;4.11;71.03
67697;BME280;54486;51.442;6.778;2023-04-03T08:28:44;102991.31;;;4.17;71.03
67697;BME280;54486;51.442;6.778;2023-04-03T08:31:14;102984.97;;;4.27;69.89
67697;BME280;54486;51.442;6.778;2023-04-03T08:33:46;102991.72;;;4.25;69.13
67697;BME280;54486;51.442;6.778;2023-04-03T08:36:22;102990.91;;;4.26;68.86
67697;BME280;54486;51.442;6.778;2023-04-03T08:38:51;102996.25;;;4.29;66.41
67697;BME280;54486;51.442;6.778;2023-04-03T08:50:05;103001.91;;;4.54;63.81
67697;BME280;54486;51.442;6.778;2023-04-03T08:52:41;103001.44;;;4.61;63.32
67697;BME280;54486;51.442;6.778;2023-04-03T08:55:25;103000.28;;;4.72;62.13
67697;BME280;54486;51.442;6.778;2023-04-03T08:58:05;102993.34;;;4.71;62.72
67697;BME280;54486;51.442;6.778;2023-04-03T09:03:29;102992.44;;;4.87;63.17
67697;BME280;54486;51.442;6.778;2023-04-03T09:06:05;103001.41;;;4.94;60.91
67697;BME280;54486;51.442;6.778;2023-04-03T09:08:51;102999.59;;;4.93;59.73
67697;BME280;54486;51.442;6.778;2023-04-03T09:12:13;103006.03;;;5.17;59.12
67697;BME280;54486;51.442;6.778;2023-04-03T09:14:23;103006.19;;;5.20;57.38
67697;BME280;54486;51.442;6.778;2023-04-03T09:16:56;103002.03;;;5.23;56.92
67697;BME280;54486;51.442;6.778;2023-04-03T09:19:49;103000.28;;;5.22;57.71
67697;BME280;54486;51.442;6.778;2023-04-03T09:22:28;103006.94;;;5.35;57.53
67697;BME280;54486;51.442;6.778;2023-04-03T09:25:08;103006.66;;;5.29;56.43
67697;BME280;54486;51.442;6.778;2023-04-03T09:27:37;103013.72;;;5.33;55.60
67697;BME280;54486;51.442;6.778;2023-04-03T09:30:05;103000.13;;;5.37;52.00
67697;BME280;54486;51.442;6.778;2023-04-03T09:32:34;103001.56;;;5.48;55.24
67697;BME280;54486;51.442;6.778;2023-04-03T09:35:21;103003.25;;;5.48;53.14
67697;BME280;54486;51.442;6.778;2023-04-03T09:38:17;103000.66;;;5.65;49.98
67697;BME280;54486;51.442;6.778;2023-04-03T09:40:45;102998.34;;;5.71;53.38
67697;BME280;54486;51.442;6.778;2023-04-03T09:45:46;102993.78;;;6.01;46.53
67697;BME280;54486;51.442;6.778;2023-04-03T09:53:40;103000.56;;;6.17;48.49
67697;BME280;54486;51.442;6.778;2023-04-03T09:58:45;102993.13;;;6.05;48.52
67697;BME280;54486;51.442;6.778;2023-04-03T10:01:25;102993.75;;;6.19;49.99
67697;BME280;54486;51.442;6.778;2023-04-03T10:06:37;102989.25;;;6.34;45.01
67697;BME280;54486;51.442;6.778;2023-04-03T10:09:29;102984.88;;;6.33;46.06
67697;BME280;54486;51.442;6.778;2023-04-03T10:12:06;102989.66;;;6.24;45.06
67697;BME280;54486;51.442;6.778;2023-04-03T10:14:37;102982.44;;;6.36;44.64
67697;BME280;54486;51.442;6.778;2023-04-03T10:19:46;102966.88;;;6.36;43.92
67697;BME280;54486;51.442;6.778;2023-04-03T10:22:21;102962.66;;;6.57;44.52
67697;BME280;54486;51.442;6.778;2023-04-03T10:25:22;102982.28;;;6.71;43.39
67697;BME280;54486;51.442;6.778;2023-04-03T10:27:55;102977.34;;;6.77;43.99
67697;BME280;54486;51.442;6.778;2023-04-03T10:30:40;102977.63;;;6.83;45.67
67697;BME280;54486;51.442;6.778;2023-04-03T10:44:58;102945.38;;;6.98;44.02
67697;BME280;54486;51.442;6.778;2023-04-03T10:47:42;102948.84;;;6.98;45.90
67697;BME280;54486;51.442;6.778;2023-04-03T10:50:38;102941.13;;;7.00;44.34
67697;BME280;54486;51.442;6.778;2023-04-03T10:53:35;102955.38;;;6.88;44.61
67697;BME280;54486;51.442;6.778;2023-04-03T10:56:19;102950.19;;;6.88;45.80
67697;BME280;54486;51.442;6.778;2023-04-03T10:59:08;102939.03;;;6.91;45.43
67697;BME280;54486;51.442;6.778;2023-04-03T11:01:42;102943.72;;;7.00;45.66
67697;BME280;54486;51.442;6.778;2023-04-03T11:04:11;102942.50;;;7.12;45.70
67697;BME280;54486;51.442;6.778;2023-04-03T11:09:28;102935.72;;;7.16;46.41
67697;BME280;54486;51.442;6.778;2023-04-03T11:12:23;102925.34;;;7.16;46.76
67697;BME280;54486;51.442;6.778;2023-04-03T11:14:53;102923.78;;;7.19;46.78
67697;BME280;54486;51.442;6.778;2023-04-03T11:17:36;102918.66;;;7.21;48.21
67697;BME280;54486;51.442;6.778;2023-04-03T11:20:18;102923.13;;;7.25;47.17
67697;BME280;54486;51.442;6.778;2023-04-03T11:23:25;102897.69;;;7.59;47.02
67697;BME280;54486;51.442;6.778;2023-04-03T11:26:11;102912.25;;;7.56;47.90
67697;BME280;54486;51.442;6.778;2023-04-03T11:28:39;102912.88;;;7.50;46.83
67697;BME280;54486;51.442;6.778;2023-04-03T11:34:33;102896.25;;;7.67;47.43
67697;BME280;54486;51.442;6.778;2023-04-03T11:37:11;102915.47;;;7.72;46.76
67697;BME280;54486;51.442;6.778;2023-04-03T11:39:49;102907.66;;;7.71;48.10
67697;BME280;54486;51.442;6.778;2023-04-03T11:42:37;102911.38;;;7.77;46.78
67697;BME280;54486;51.442;6.778;2023-04-03T11:45:34;102908.41;;;7.68;46.70
67697;BME280;54486;51.442;6.778;2023-04-03T11:48:05;102904.03;;;7.67;47.63
67697;BME280;54486;51.442;6.778;2023-04-03T11:50:48;102913.03;;;7.75;46.08
67697;BME280;54486;51.442;6.778;2023-04-03T12:14:01;102884.38;;;8.20;46.22
67697;BME280;54486;51.442;6.778;2023-04-03T12:19:32;102886.47;;;8.30;45.78
67697;BME280;54486;51.442;6.778;2023-04-03T12:22:11;102874.84;;;8.44;43.97
67697;BME280;54486;51.442;6.778;2023-04-03T12:24:42;102880.53;;;8.58;43.17
67697;BME280;54486;51.442;6.778;2023-04-03T12:27:38;102879.44;;;8.51;44.13
67697;BME280;54486;51.442;6.778;2023-04-03T12:30:26;102870.75;;;8.50;43.84
67697;BME280;54486;51.442;6.778;2023-04-03T12:33:13;102862.66;;;8.43;44.81
67697;BME280;54486;51.442;6.778;2023-04-03T12:36:18;102861.34;;;8.54;43.93
67697;BME280;54486;51.442;6.778;2023-04-03T12:41:50;102858.53;;;8.73;43.37
67697;BME280;54486;51.442;6.778;2023-04-03T12:46:51;102843.50;;;8.91;44.34
67697;BME280;54486;51.442;6.778;2023-04-03T12:49:40;102845.84;;;9.11;44.03
67697;BME280;54486;51.442;6.778;2023-04-03T12:54:52;102838.16;;;9.42;41.88
67697;BME280;54486;51.442;6.778;2023-04-03T12:57:24;102829.75;;;9.52;42.71
67697;BME280;54486;51.442;6.778;2023-04-03T12:59:53;102832.47;;;9.55;40.86
67697;BME280;54486;51.442;6.778;2023-04-03T13:02:28;102832.28;;;9.49;41.48
67697;BME280;54486;51.442;6.778;2023-04-03T13:04:59;102831.25;;;9.72;41.81
67697;BME280;54486;51.442;6.778;2023-04-03T13:07:34;102825.47;;;9.82;40.81
67697;BME280;54486;51.442;6.778;2023-04-03T13:12:44;102826.94;;;10.04;40.61
67697;BME280;54486;51.442;6.778;2023-04-03T13:15:26;102823.13;;;10.23;40.32
67697;BME280;54486;51.442;6.778;2023-04-03T13:17:54;102821.44;;;10.57;40.52
67697;BME280;54486;51.442;6.778;2023-04-03T13:20:29;102824.56;;;10.77;38.81
67697;BME280;54486;51.442;6.778;2023-04-03T13:23:02;102815.50;;;10.99;38.33
67697;BME280;54486;51.442;6.778;2023-04-03T13:25:35;102813.63;;;11.31;38.36
67697;BME280;54486;51.442;6.778;2023-04-03T13:28:05;102809.19;;;12.10;37.11
67697;BME280;54486;51.442;6.778;2023-04-03T13:30:41;102799.69;;;13.17;36.75
67697;BME280;54486;51.442;6.778;2023-04-03T13:33:28;102790.50;;;14.29;33.45
67697;BME280;54486;51.442;6.778;2023-04-03T13:36:02;102792.91;;;15.03;32.75
67697;BME280;54486;51.442;6.778;2023-04-03T13:38:31;102792.31;;;15.51;31.70
67697;BME280;54486;51.442;6.778;2023-04-03T13:41:05;102787.22;;;16.03;31.75
67697;BME280;54486;51.442;6.778;2023-04-03T13:43:36;102793.44;;;16.32;30.71
67697;BME280;54486;51.442;6.778;2023-04-03T13:48:48;102784.69;;;16.77;29.33
67697;BME280;54486;51.442;6.778;2023-04-03T13:51:21;102787.31;;;16.86;30.06
67697;BME280;54486;51.442;6.778;2023-04-03T13:54:00;102789.94;;;16.98;29.27
67697;BME280;54486;51.442;6.778;2023-04-03T13:56:34;102783.78;;;16.88;29.37
67697;BME280;54486;51.442;6.778;2023-04-03T14:04:18;102767.84;;;17.34;27.40
67697;BME280;54486;51.442;6.778;2023-04-03T14:06:47;102769.66;;;17.18;27.86
67697;BME280;54486;51.442;6.778;2023-04-03T14:09:16;102766.03;;;17.57;27.91
67697;BME280;54486;51.442;6.778;2023-04-03T14:11:43;102760.75;;;17.53;27.04
67697;BME280;54486;51.442;6.778;2023-04-03T14:14:20;102765.03;;;17.78;27.40
67697;BME280;54486;51.442;6.778;2023-04-03T14:16:54;102755.38;;;17.75;27.19
67697;BME280;54486;51.442;6.778;2023-04-03T14:19:28;102759.72;;;17.84;25.49
67697;BME280;54486;51.442;6.778;2023-04-03T14:21:58;102756.38;;;17.52;27.05
67697;BME280;54486;51.442;6.778;2023-04-03T14:24:25;102742.09;;;17.89;26.88
67697;BME280;54486;51.442;6.778;2023-04-03T14:26:54;102752.75;;;17.68;27.68
67697;BME280;54486;51.442;6.778;2023-04-03T14:29:22;102744.75;;;17.89;26.73
67697;BME280;54486;51.442;6.778;2023-04-03T14:31:51;102740.19;;;18.12;26.42
67697;BME280;54486;51.442;6.778;2023-04-03T14:34:37;102732.88;;;18.41;26.97
67697;BME280;54486;51.442;6.778;2023-04-03T14:37:09;102734.50;;;18.61;26.37
67697;BME280;54486;51.442;6.778;2023-04-03T14:39:37;102736.13;;;18.77;25.63
67697;BME280;54486;51.442;6.778;2023-04-03T14:42:04;102731.19;;;18.37;26.27
67697;BME280;54486;51.442;6.778;2023-04-03T14:44:33;102740.22;;;18.09;25.60
67697;BME280;54486;51.442;6.778;2023-04-03T14:47:00;102731.28;;;18.22;25.91
67697;BME280;54486;51.442;6.778;2023-04-03T14:49:28;102734.88;;;18.15;26.68